Time;durP1;ratioP1;P1;durP2;ratioP2;P2;SDS_P1;SDS_P2;PMS_P1;PMS_P2;Temp;Humidity;BMP_temperature;BMP_pressure;BME280_temperature;BME280_humidity;BME280_pressure;Samples;Min_cycle;Max_cycle;Signal;HPM_P1;HPM_P2
2022/08/31 00:05:07;;;;;;;2.88;1.38;;;18.30;64.60;;;;;;6244099;23;20014;-67
2022/08/31 00:07:33;;;;;;;1.25;1.10;;;18.30;64.80;;;;;;6244105;23;20031;-67
2022/08/31 00:09:59;;;;;;;1.63;1.30;;;18.20;64.90;;;;;;6244703;23;20051;-67
2022/08/31 00:12:25;;;;;;;1.30;1.20;;;18.20;64.90;;;;;;6245480;23;20054;-67
2022/08/31 00:14:51;;;;;;;1.65;1.38;;;18.20;65.30;;;;;;6244702;23;20000;-68
2022/08/31 00:17:17;;;;;;;2.22;1.30;;;18.10;65.30;;;;;;6243679;23;20004;-68
2022/08/31 00:19:42;;;;;;;2.15;1.20;;;18.10;65.30;;;;;;6243502;23;20421;-68
2022/08/31 00:22:08;;;;;;;1.45;1.20;;;18.10;65.20;;;;;;6244351;23;20000;-68
2022/08/31 00:24:34;;;;;;;1.50;1.10;;;18.10;65.10;;;;;;6244495;23;20008;-68
2022/08/31 00:27:00;;;;;;;2.00;1.10;;;18.10;65.20;;;;;;6243983;23;20015;-67
2022/08/31 00:29:26;;;;;;;3.25;1.30;;;18.10;65.10;;;;;;6243644;23;20004;-69
2022/08/31 00:31:51;;;;;;;3.40;1.50;;;18.10;65.30;;;;;;6243903;23;20015;-68
2022/08/31 00:34:17;;;;;;;1.30;1.20;;;18.00;65.20;;;;;;6243550;23;20080;-68
2022/08/31 00:36:46;;;;;;;1.20;1.10;;;18.00;65.10;;;;;;6243513;23;20031;-67
2022/08/31 00:39:12;;;;;;;1.20;1.10;;;18.00;65.20;;;;;;6244265;23;20000;-67
2022/08/31 00:41:38;;;;;;;1.90;1.30;;;18.00;65.20;;;;;;6243147;23;20004;-67
2022/08/31 00:44:07;;;;;;;1.40;1.00;;;17.90;65.40;;;;;;6243972;23;20011;-68
2022/08/31 00:46:37;;;;;;;1.75;1.27;;;17.90;65.40;;;;;;6243209;23;20142;-68
2022/08/31 00:49:04;;;;;;;2.60;1.20;;;17.90;65.40;;;;;;6243291;23;20004;-68
2022/08/31 00:51:35;;;;;;;1.45;1.10;;;17.90;65.60;;;;;;6242267;23;20004;-68
2022/08/31 00:54:01;;;;;;;1.40;1.20;;;17.80;65.70;;;;;;6240858;23;20054;-68
2022/08/31 00:56:30;;;;;;;1.55;1.15;;;17.80;65.80;;;;;;6241999;23;20030;-68
2022/08/31 00:58:56;;;;;;;2.45;1.20;;;17.80;65.80;;;;;;6242041;23;20492;-68
2022/08/31 01:01:22;;;;;;;2.55;1.30;;;17.80;66.50;;;;;;6242664;23;20007;-70
2022/08/31 01:03:48;;;;;;;2.33;1.10;;;17.70;65.80;;;;;;6242653;23;20004;-69
2022/08/31 01:06:16;;;;;;;1.20;1.10;;;17.70;66.40;;;;;;6240966;23;20325;-68
2022/08/31 01:08:42;;;;;;;1.77;1.50;;;17.70;65.70;;;;;;6243472;23;20004;-68
2022/08/31 01:11:08;;;;;;;1.38;1.20;;;17.60;66.00;;;;;;6243568;23;20336;-68
2022/08/31 01:13:33;;;;;;;1.70;1.20;;;17.60;66.10;;;;;;6242535;23;20027;-68
2022/08/31 01:16:11;;;;;;;1.48;1.20;;;17.60;66.10;;;;;;6242021;23;20022;-69
2022/08/31 01:18:39;;;;;;;2.35;1.20;;;17.50;66.00;;;;;;6242008;23;20550;-68
2022/08/31 01:21:33;;;;;;;1.63;1.25;;;17.50;66.10;;;;;;6240918;23;20004;-68
2022/08/31 01:24:01;;;;;;;1.30;1.20;;;17.50;66.20;;;;;;6242099;23;20004;-68
2022/08/31 01:26:29;;;;;;;2.10;1.45;;;17.50;66.10;;;;;;6241710;23;20454;-68
2022/08/31 01:29:00;;;;;;;1.20;1.10;;;17.50;66.10;;;;;;6241156;23;20000;-68
2022/08/31 01:31:36;;;;;;;1.40;1.30;;;17.40;66.10;;;;;;6242467;23;20004;-67
2022/08/31 01:34:02;;;;;;;1.67;1.10;;;17.40;66.20;;;;;;6244195;23;20000;-68
2022/08/31 01:36:29;;;;;;;1.38;1.10;;;17.40;66.10;;;;;;6244727;23;20032;-67
2022/08/31 01:38:55;;;;;;;1.75;1.15;;;17.40;66.30;;;;;;6243075;23;20007;-68
2022/08/31 01:41:21;;;;;;;1.65;1.10;;;17.30;66.20;;;;;;6244475;23;20028;-68
2022/08/31 01:43:47;;;;;;;1.50;1.20;;;17.30;66.20;;;;;;6244046;23;20000;-68
2022/08/31 01:46:13;;;;;;;1.35;1.13;;;17.30;66.30;;;;;;6244561;23;20008;-68
2022/08/31 01:48:43;;;;;;;1.30;1.20;;;17.30;66.30;;;;;;6245363;23;20425;-68
2022/08/31 01:51:11;;;;;;;1.33;1.02;;;17.30;66.30;;;;;;6244498;23;20336;-66
2022/08/31 01:53:36;;;;;;;2.28;1.15;;;17.20;66.20;;;;;;6243071;23;20007;-67
2022/08/31 01:56:02;;;;;;;1.17;1.10;;;17.20;66.30;;;;;;6244135;23;20550;-67
2022/08/31 01:58:28;;;;;;;2.00;1.42;;;17.20;66.40;;;;;;6244263;23;20001;-66
2022/08/31 02:00:53;;;;;;;1.20;1.10;;;17.20;66.40;;;;;;6242097;23;20000;-66
2022/08/31 02:03:19;;;;;;;1.23;1.05;;;17.10;66.40;;;;;;6244760;23;19996;-66
2022/08/31 02:05:44;;;;;;;1.42;1.30;;;17.10;66.30;;;;;;6246168;23;20000;-67
2022/08/31 02:08:10;;;;;;;1.30;1.20;;;17.10;66.40;;;;;;6245580;23;20006;-67
2022/08/31 02:10:37;;;;;;;1.52;1.42;;;17.10;66.40;;;;;;6245368;23;20035;-66
2022/08/31 02:13:04;;;;;;;1.67;1.10;;;17.10;66.40;;;;;;6243658;23;20011;-66
2022/08/31 02:15:30;;;;;;;1.23;1.10;;;17.00;66.50;;;;;;6246350;23;20001;-67
2022/08/31 02:17:56;;;;;;;2.63;1.20;;;17.00;66.50;;;;;;6246159;22;20003;-67
2022/08/31 02:20:22;;;;;;;1.00;0.90;;;17.00;66.50;;;;;;6244805;23;20004;-67
2022/08/31 02:22:48;;;;;;;1.88;1.20;;;17.00;66.40;;;;;;6245193;23;20026;-66
2022/08/31 02:25:15;;;;;;;1.30;1.20;;;16.90;66.50;;;;;;6243152;23;20003;-66
2022/08/31 02:27:41;;;;;;;2.03;1.20;;;16.90;66.50;;;;;;6245575;23;20008;-66
2022/08/31 02:30:13;;;;;;;1.75;1.23;;;16.90;66.50;;;;;;6247035;23;20337;-66
2022/08/31 02:32:38;;;;;;;1.27;1.13;;;16.90;66.50;;;;;;6246626;23;20428;-66
2022/08/31 02:35:05;;;;;;;2.25;1.27;;;16.80;66.30;;;;;;6247732;23;20047;-66
2022/08/31 02:37:30;;;;;;;1.88;1.08;;;16.80;66.40;;;;;;6246727;23;20567;-67
2022/08/31 02:39:56;;;;;;;1.50;1.27;;;16.80;66.30;;;;;;6245804;23;19996;-67
2022/08/31 02:42:21;;;;;;;1.55;1.10;;;16.80;66.30;;;;;;6246292;23;20008;-67
2022/08/31 02:44:47;;;;;;;1.30;1.08;;;16.80;66.30;;;;;;6246159;23;20457;-67
2022/08/31 02:47:12;;;;;;;1.38;1.27;;;16.70;66.30;;;;;;6242103;23;20685;-67
2022/08/31 02:49:38;;;;;;;1.55;1.10;;;16.70;66.40;;;;;;6243145;23;20000;-67
2022/08/31 02:52:03;;;;;;;1.35;1.17;;;16.60;66.50;;;;;;6243202;23;20031;-66
2022/08/31 02:54:29;;;;;;;2.30;1.33;;;16.60;66.40;;;;;;6243892;23;19996;-66
2022/08/31 02:56:55;;;;;;;1.40;1.10;;;16.60;66.50;;;;;;6243726;23;20020;-66
2022/08/31 02:59:20;;;;;;;1.20;1.10;;;16.50;66.40;;;;;;6244048;23;20054;-66
2022/08/31 03:01:47;;;;;;;2.20;1.10;;;16.50;66.50;;;;;;6243575;23;20062;-66
2022/08/31 03:04:12;;;;;;;2.08;0.90;;;16.50;66.50;;;;;;6243935;23;20038;-66
2022/08/31 03:06:38;;;;;;;1.40;1.10;;;16.50;66.50;;;;;;6244168;23;20000;-66
2022/08/31 03:09:04;;;;;;;1.15;1.05;;;16.40;66.40;;;;;;6243813;23;20000;-66
2022/08/31 03:11:29;;;;;;;1.42;1.10;;;16.40;66.40;;;;;;6244027;23;20054;-66
2022/08/31 03:13:55;;;;;;;1.00;0.90;;;16.40;66.40;;;;;;6243329;23;20031;-66
2022/08/31 03:16:20;;;;;;;1.10;1.00;;;16.40;66.40;;;;;;6244349;23;20000;-66
2022/08/31 03:18:47;;;;;;;2.42;1.15;;;16.30;66.40;;;;;;6244297;23;19996;-66
2022/08/31 03:21:13;;;;;;;1.20;1.08;;;16.30;66.40;;;;;;6244395;23;20057;-66
2022/08/31 03:23:39;;;;;;;2.38;1.38;;;16.20;66.50;;;;;;6244327;23;20425;-67
2022/08/31 03:26:04;;;;;;;2.53;1.27;;;16.20;66.60;;;;;;6244091;23;20000;-67
2022/08/31 03:28:35;;;;;;;1.90;1.30;;;16.10;66.50;;;;;;6244292;23;20497;-68
2022/08/31 03:31:01;;;;;;;1.33;1.23;;;16.20;66.50;;;;;;6243181;23;20004;-68
2022/08/31 03:33:27;;;;;;;2.20;1.20;;;16.10;66.50;;;;;;6242885;23;20392;-66
2022/08/31 03:35:52;;;;;;;1.98;1.25;;;16.00;66.60;;;;;;6244552;23;20004;-66
2022/08/31 03:38:19;;;;;;;1.20;1.10;;;16.00;66.70;;;;;;6245514;23;20004;-66
2022/08/31 03:40:45;;;;;;;1.00;0.90;;;15.90;66.70;;;;;;6245091;23;20008;-67
2022/08/31 03:43:12;;;;;;;1.73;1.30;;;15.90;66.70;;;;;;6244404;23;20025;-67
2022/08/31 03:45:39;;;;;;;1.77;1.20;;;15.90;66.60;;;;;;6244596;23;20067;-67
2022/08/31 03:48:06;;;;;;;1.27;1.05;;;15.90;66.70;;;;;;6244771;23;20372;-68
2022/08/31 03:50:33;;;;;;;1.20;1.10;;;15.90;66.60;;;;;;6244770;23;20008;-67
2022/08/31 03:53:02;;;;;;;1.35;1.00;;;15.90;66.50;;;;;;6246135;22;20425;-67
2022/08/31 03:55:29;;;;;;;1.35;1.10;;;15.90;66.40;;;;;;6246084;23;20000;-66
2022/08/31 03:57:55;;;;;;;1.20;1.10;;;15.80;66.40;;;;;;6246448;23;19996;-67
2022/08/31 04:00:22;;;;;;;1.20;1.10;;;15.80;66.50;;;;;;6244584;23;20461;-67
2022/08/31 04:02:47;;;;;;;2.10;1.00;;;15.80;66.40;;;;;;6244589;23;20000;-68
2022/08/31 04:05:13;;;;;;;1.50;1.20;;;15.80;66.30;;;;;;6244445;23;20057;-67
2022/08/31 04:07:39;;;;;;;1.20;1.10;;;15.80;66.90;;;;;;6245284;23;20091;-67
2022/08/31 04:10:05;;;;;;;1.10;1.00;;;15.80;66.10;;;;;;6244804;23;20079;-66
2022/08/31 04:12:31;;;;;;;1.70;1.23;;;15.80;66.00;;;;;;6246886;23;20028;-66
2022/08/31 04:14:57;;;;;;;1.65;1.20;;;15.80;66.00;;;;;;6245660;23;20000;-66
2022/08/31 04:17:22;;;;;;;1.52;1.08;;;15.70;65.90;;;;;;6244961;23;20000;-66
2022/08/31 04:19:48;;;;;;;1.20;1.10;;;15.70;65.90;;;;;;6244654;23;19996;-66
2022/08/31 04:22:13;;;;;;;1.70;1.20;;;15.70;65.90;;;;;;6244726;23;20441;-66
2022/08/31 04:24:39;;;;;;;1.13;0.90;;;15.70;65.80;;;;;;6244231;23;20007;-67
2022/08/31 04:27:04;;;;;;;1.17;1.00;;;15.70;65.70;;;;;;6243897;23;20015;-66
2022/08/31 04:29:30;;;;;;;1.70;1.13;;;15.70;65.60;;;;;;6243318;23;20515;-66
2022/08/31 04:31:56;;;;;;;1.30;1.00;;;15.70;65.40;;;;;;6243614;23;20004;-67
2022/08/31 04:34:22;;;;;;;1.40;1.00;;;15.60;65.40;;;;;;6243607;23;20014;-66
2022/08/31 04:36:47;;;;;;;2.03;1.10;;;15.60;65.30;;;;;;6243481;23;19999;-65
2022/08/31 04:39:13;;;;;;;1.42;1.08;;;15.60;65.20;;;;;;6243175;23;20008;-66
2022/08/31 04:41:40;;;;;;;1.30;1.00;;;15.60;65.10;;;;;;6241452;23;20007;-66
2022/08/31 04:44:07;;;;;;;1.67;1.05;;;15.60;65.00;;;;;;6243026;23;20026;-66
2022/08/31 04:46:35;;;;;;;3.65;0.98;;;15.60;64.90;;;;;;6242607;23;20086;-67
2022/08/31 04:49:00;;;;;;;1.77;0.93;;;15.50;64.70;;;;;;6241858;23;20075;-67
2022/08/31 04:51:29;;;;;;;1.33;0.98;;;15.50;64.60;;;;;;6242748;23;20081;-67
2022/08/31 04:53:56;;;;;;;1.75;0.90;;;15.50;64.50;;;;;;6243057;23;20026;-66
2022/08/31 04:56:25;;;;;;;1.42;1.00;;;15.40;64.30;;;;;;6242126;23;20010;-67
2022/08/31 04:58:58;;;;;;;1.30;1.00;;;15.40;64.10;;;;;;6242484;23;20421;-67
2022/08/31 05:01:29;;;;;;;1.10;1.00;;;15.40;64.10;;;;;;6242176;23;20008;-66
2022/08/31 05:03:56;;;;;;;1.27;0.80;;;15.40;64.00;;;;;;6242752;23;20000;-66
2022/08/31 05:06:24;;;;;;;1.33;0.95;;;15.40;63.90;;;;;;6242195;23;20000;-67
2022/08/31 05:08:55;;;;;;;0.95;0.80;;;15.40;63.70;;;;;;6243515;23;20000;-66
2022/08/31 05:11:22;;;;;;;1.02;0.85;;;15.40;63.60;;;;;;6244721;22;20367;-67
2022/08/31 05:13:48;;;;;;;1.80;1.10;;;15.40;63.40;;;;;;6243651;23;20011;-67
2022/08/31 05:16:15;;;;;;;1.80;1.13;;;15.40;63.30;;;;;;6244909;23;20003;-68
2022/08/31 05:18:43;;;;;;;1.50;1.08;;;15.40;63.20;;;;;;6243213;23;20004;-67
2022/08/31 05:21:18;;;;;;;1.13;1.00;;;15.40;62.90;;;;;;6242897;23;20001;-68
2022/08/31 05:23:46;;;;;;;0.73;0.73;;;15.40;62.80;;;;;;6242849;23;20004;-67
2022/08/31 05:26:20;;;;;;;1.25;0.80;;;15.40;62.60;;;;;;6242219;23;20004;-68
2022/08/31 05:28:46;;;;;;;1.40;0.82;;;15.40;62.40;;;;;;6240635;23;20071;-67
2022/08/31 05:31:12;;;;;;;0.80;0.80;;;15.50;62.20;;;;;;6241794;23;20008;-68
2022/08/31 05:33:38;;;;;;;1.27;0.77;;;15.80;61.60;;;;;;6242532;23;20003;-69
2022/08/31 05:36:04;;;;;;;1.13;0.70;;;16.30;60.70;;;;;;6240319;23;20000;-68
2022/08/31 05:38:30;;;;;;;0.80;0.80;;;17.00;59.30;;;;;;6243369;23;20333;-67
2022/08/31 05:40:57;;;;;;;1.98;0.75;;;18.00;57.10;;;;;;6244256;23;19996;-69
2022/08/31 05:43:23;;;;;;;1.17;0.70;;;18.30;55.20;;;;;;6242444;22;20012;-68
2022/08/31 05:45:49;;;;;;;1.10;0.60;;;18.00;55.10;;;;;;6242521;23;20340;-69
2022/08/31 05:48:14;;;;;;;1.20;0.73;;;17.60;55.60;;;;;;6242463;23;20070;-67
2022/08/31 05:50:40;;;;;;;1.77;0.68;;;17.20;56.40;;;;;;6240485;23;20008;-67
2022/08/31 05:53:06;;;;;;;0.93;0.70;;;17.00;57.00;;;;;;6242669;23;20466;-67
2022/08/31 05:55:32;;;;;;;0.75;0.70;;;16.80;57.50;;;;;;6242526;23;20050;-66
2022/08/31 05:57:58;;;;;;;1.52;0.90;;;16.60;57.70;;;;;;6243545;22;20208;-66
2022/08/31 06:00:24;;;;;;;2.33;0.90;;;16.50;58.00;;;;;;6242639;23;20011;-66
2022/08/31 06:02:50;;;;;;;1.17;0.70;;;16.50;58.20;;;;;;6241147;23;20031;-66
2022/08/31 06:05:16;;;;;;;1.75;0.82;;;16.50;58.10;;;;;;6242768;23;20007;-66
2022/08/31 06:07:42;;;;;;;2.25;0.80;;;17.70;57.10;;;;;;6243169;23;20011;-68
2022/08/31 06:10:08;;;;;;;0.80;0.70;;;19.10;54.30;;;;;;6243957;22;20004;-68
2022/08/31 06:12:36;;;;;;;1.13;0.60;;;19.90;51.90;;;;;;6244011;23;20004;-68
2022/08/31 06:15:03;;;;;;;2.92;0.90;;;20.00;50.70;;;;;;6244779;23;20075;-67
2022/08/31 06:17:31;;;;;;;1.95;0.80;;;19.70;50.60;;;;;;6244822;23;19996;-68
2022/08/31 06:19:57;;;;;;;1.40;0.60;;;19.30;51.80;;;;;;6245348;23;20001;-68
2022/08/31 06:22:26;;;;;;;2.60;0.70;;;18.90;52.00;;;;;;6244006;23;20096;-68
2022/08/31 06:24:52;;;;;;;0.98;0.80;;;18.60;52.60;;;;;;6246234;23;20394;-68
2022/08/31 06:27:18;;;;;;;3.60;0.90;;;18.80;52.60;;;;;;6246166;23;20062;-67
2022/08/31 06:29:44;;;;;;;1.75;0.70;;;19.00;52.40;;;;;;6247114;23;20019;-67
2022/08/31 06:32:13;;;;;;;1.85;0.95;;;19.20;51.70;;;;;;6246955;23;20100;-68
2022/08/31 06:34:39;;;;;;;1.00;0.60;;;19.50;51.40;;;;;;6247138;23;20417;-67
2022/08/31 06:37:07;;;;;;;0.93;0.80;;;19.80;50.80;;;;;;6246118;23;20075;-68
2022/08/31 06:39:33;;;;;;;1.35;0.60;;;20.20;50.20;;;;;;6244930;23;20001;-68
2022/08/31 06:41:59;;;;;;;1.02;0.70;;;21.20;49.00;;;;;;6243750;23;20004;-69
2022/08/31 06:44:25;;;;;;;1.10;0.82;;;22.20;47.20;;;;;;6245511;23;20475;-68
2022/08/31 06:46:51;;;;;;;1.42;0.70;;;23.10;45.40;;;;;;6243491;23;20091;-68
2022/08/31 06:49:18;;;;;;;1.00;0.90;;;23.90;44.30;;;;;;6246361;23;20051;-68
2022/08/31 06:51:44;;;;;;;0.63;0.60;;;24.60;42.70;;;;;;6244598;23;20019;-68
2022/08/31 06:54:11;;;;;;;1.70;0.60;;;24.70;41.60;;;;;;6245517;23;20147;-68
2022/08/31 06:56:38;;;;;;;1.35;0.90;;;24.40;41.70;;;;;;6243287;23;20001;-68
2022/08/31 06:59:04;;;;;;;1.17;0.88;;;23.70;42.20;;;;;;6243344;23;20075;-68
2022/08/31 07:01:32;;;;;;;0.93;0.65;;;23.40;43.10;;;;;;6245000;23;20008;-68
2022/08/31 07:03:59;;;;;;;1.58;0.65;;;23.90;43.10;;;;;;6244091;23;20429;-68
2022/08/31 07:06:28;;;;;;;0.93;0.80;;;23.90;43.50;;;;;;6245395;23;20001;-67
2022/08/31 07:08:57;;;;;;;1.08;0.70;;;23.20;43.10;;;;;;6245496;23;20004;-68
2022/08/31 07:11:41;;;;;;;0.90;0.60;;;22.40;44.60;;;;;;6242700;23;20031;-67
2022/08/31 07:14:11;;;;;;;2.20;0.75;;;21.80;46.00;;;;;;6245304;23;20000;-67
2022/08/31 07:16:37;;;;;;;1.08;0.68;;;21.10;47.40;;;;;;6245158;23;20000;-68
2022/08/31 07:19:05;;;;;;;1.52;0.50;;;20.80;48.40;;;;;;6241838;22;20023;-68
2022/08/31 07:21:34;;;;;;;0.65;0.60;;;21.00;48.50;;;;;;6244420;23;20379;-67
2022/08/31 07:24:01;;;;;;;0.95;0.60;;;20.90;48.50;;;;;;6245098;23;20008;-67
2022/08/31 07:26:31;;;;;;;1.33;0.80;;;20.70;49.00;;;;;;6244480;23;20087;-68
2022/08/31 07:28:57;;;;;;;1.50;0.80;;;20.70;49.30;;;;;;6245082;23;20004;-67
2022/08/31 07:31:29;;;;;;;1.00;0.80;;;22.20;48.00;;;;;;6245426;23;20452;-67
2022/08/31 07:33:56;;;;;;;1.38;1.00;;;23.60;45.60;;;;;;6218855;23;20011;-67
2022/08/31 07:36:24;;;;;;;1.35;0.70;;;24.30;43.70;;;;;;6244709;23;20007;-68
2022/08/31 07:44:23;;;;;;;2.05;0.80;;;25.50;41.40;;;;;;6243615;23;20138;-68
2022/08/31 07:46:54;;;;;;;2.00;0.80;;;25.10;41.80;;;;;;6242883;23;20805;-68
2022/08/31 07:49:20;;;;;;;0.80;0.70;;;24.60;42.40;;;;;;6241689;23;20008;-68
2022/08/31 07:51:50;;;;;;;1.40;0.98;;;25.10;42.10;;;;;;6244053;23;20352;-68
2022/08/31 07:54:19;;;;;;;0.93;0.60;;;25.30;41.90;;;;;;6244101;23;20337;-67
2022/08/31 07:56:46;;;;;;;1.75;0.80;;;26.30;41.20;;;;;;6244700;23;20004;-68
2022/08/31 07:59:13;;;;;;;1.95;0.88;;;26.70;40.40;;;;;;6245308;23;19996;-68
2022/08/31 08:01:41;;;;;;;1.15;0.80;;;27.00;39.90;;;;;;6242850;23;20088;-69
2022/08/31 08:04:08;;;;;;;1.13;0.80;;;27.10;39.50;;;;;;6244517;23;20053;-67
2022/08/31 08:06:34;;;;;;;1.70;1.00;;;27.00;39.50;;;;;;6242678;23;20030;-66
2022/08/31 08:09:06;;;;;;;1.35;0.80;;;26.30;39.50;;;;;;6245088;23;20004;-65
2022/08/31 08:11:35;;;;;;;2.13;1.00;;;26.50;40.20;;;;;;6243610;23;20879;-66
2022/08/31 08:14:03;;;;;;;1.45;0.90;;;26.20;40.20;;;;;;6243024;23;20468;-67
2022/08/31 08:16:29;;;;;;;2.38;1.10;;;26.20;40.60;;;;;;6243072;23;20000;-66
2022/08/31 08:18:55;;;;;;;1.27;1.00;;;26.20;40.60;;;;;;6241907;23;20409;-67
2022/08/31 08:21:20;;;;;;;1.77;1.00;;;27.00;40.20;;;;;;6242703;23;20028;-66
2022/08/31 08:23:46;;;;;;;1.15;0.90;;;26.70;39.60;;;;;;6243871;23;20071;-67
2022/08/31 08:26:12;;;;;;;1.35;0.95;;;26.20;40.50;;;;;;6242501;23;20071;-67
2022/08/31 08:28:37;;;;;;;1.02;0.90;;;25.40;41.60;;;;;;6242584;23;20012;-66
2022/08/31 08:31:05;;;;;;;1.38;1.00;;;25.20;42.40;;;;;;6243125;23;20015;-67
2022/08/31 08:33:33;;;;;;;1.15;0.90;;;25.10;42.60;;;;;;6243640;23;20407;-67
2022/08/31 08:36:01;;;;;;;1.88;1.10;;;25.60;42.40;;;;;;6242998;23;19996;-67
2022/08/31 08:38:29;;;;;;;1.85;0.68;;;25.90;41.90;;;;;;6242347;23;19996;-68
2022/08/31 08:40:57;;;;;;;1.90;1.02;;;26.30;41.60;;;;;;6239403;23;20008;-67
2022/08/31 08:43:30;;;;;;;2.03;1.00;;;26.30;41.40;;;;;;6241305;23;19996;-67
2022/08/31 08:45:56;;;;;;;2.22;1.20;;;26.20;41.50;;;;;;6242851;23;20087;-67
2022/08/31 08:48:25;;;;;;;1.45;0.80;;;26.10;41.80;;;;;;6243325;23;20001;-67
2022/08/31 08:50:52;;;;;;;2.50;1.30;;;26.40;41.70;;;;;;6243071;23;20039;-67
2022/08/31 08:53:22;;;;;;;2.10;0.90;;;25.50;42.00;;;;;;6243527;23;20048;-67
2022/08/31 08:55:49;;;;;;;1.30;1.10;;;24.20;44.40;;;;;;6244130;23;20532;-67
2022/08/31 08:58:17;;;;;;;1.27;0.85;;;23.20;46.50;;;;;;6240746;23;20004;-67
2022/08/31 09:00:48;;;;;;;2.40;1.20;;;22.60;48.10;;;;;;6243618;23;20024;-68
2022/08/31 09:03:43;;;;;;;2.17;1.30;;;22.70;48.90;;;;;;6243618;23;20035;-67
2022/08/31 09:06:13;;;;;;;2.35;1.45;;;22.40;49.50;;;;;;6242566;23;20008;-67
2022/08/31 09:09:17;;;;;;;1.45;1.20;;;22.00;50.40;;;;;;6242049;23;20004;-66
2022/08/31 09:12:06;;;;;;;1.63;1.20;;;21.80;51.00;;;;;;6243800;23;20083;-67
2022/08/31 09:14:38;;;;;;;2.75;1.10;;;21.50;51.60;;;;;;6244358;23;19996;-67
2022/08/31 09:17:25;;;;;;;1.90;1.02;;;21.40;52.10;;;;;;6243670;23;20000;-67
2022/08/31 09:20:02;;;;;;;1.27;1.00;;;21.30;52.30;;;;;;6243303;23;20079;-67
2022/08/31 09:22:51;;;;;;;1.42;1.00;;;21.20;52.60;;;;;;6243341;23;20020;-67
2022/08/31 09:25:19;;;;;;;1.10;1.00;;;21.30;52.70;;;;;;6242439;22;20376;-68
2022/08/31 09:27:56;;;;;;;2.28;1.05;;;21.50;52.50;;;;;;6243452;23;20092;-67
2022/08/31 09:30:36;;;;;;;1.63;1.10;;;21.50;52.10;;;;;;6243448;23;20333;-67
2022/08/31 09:33:02;;;;;;;2.15;1.10;;;21.60;52.10;;;;;;6243256;23;20046;-68
2022/08/31 09:35:39;;;;;;;3.50;1.30;;;21.50;51.80;;;;;;6242727;23;20000;-67
2022/08/31 09:38:09;;;;;;;2.53;1.10;;;21.40;52.00;;;;;;6243010;23;20333;-67
2022/08/31 09:40:42;;;;;;;1.17;1.00;;;21.40;52.00;;;;;;6243315;23;19997;-67
2022/08/31 09:43:24;;;;;;;1.45;1.00;;;21.40;52.00;;;;;;6242822;22;20008;-67
2022/08/31 09:45:55;;;;;;;2.90;1.20;;;21.50;52.00;;;;;;6241067;23;20392;-67
2022/08/31 09:48:56;;;;;;;2.78;0.88;;;21.60;51.90;;;;;;6241407;23;20027;-67
2022/08/31 09:51:28;;;;;;;1.52;1.10;;;21.70;51.70;;;;;;6241821;23;20384;-67
2022/08/31 09:57:01;;;;;;;2.35;1.00;;;21.70;50.90;;;;;;6241294;23;20011;-67
2022/08/31 09:59:33;;;;;;;2.58;1.40;;;21.70;51.00;;;;;;6241730;23;20024;-67
2022/08/31 10:02:01;;;;;;;1.52;1.05;;;21.70;51.00;;;;;;6241996;23;20027;-67
2022/08/31 10:04:35;;;;;;;1.60;1.00;;;21.80;51.00;;;;;;6241199;23;20012;-67
2022/08/31 10:07:13;;;;;;;1.73;1.17;;;21.90;51.00;;;;;;6241822;23;20001;-67
2022/08/31 10:09:53;;;;;;;2.25;1.10;;;22.00;50.40;;;;;;6241955;23;20011;-67
2022/08/31 10:12:26;;;;;;;4.20;1.33;;;22.10;50.40;;;;;;6241966;23;20008;-67
2022/08/31 10:14:56;;;;;;;3.08;1.23;;;22.10;49.80;;;;;;6241581;23;20004;-67
2022/08/31 10:17:34;;;;;;;1.15;0.70;;;22.10;50.00;;;;;;6244056;23;20027;-67
2022/08/31 10:20:18;;;;;;;1.90;0.90;;;22.30;50.10;;;;;;6243829;23;20084;-67
2022/08/31 10:22:59;;;;;;;1.45;1.05;;;22.40;50.00;;;;;;6244203;23;20015;-67
2022/08/31 10:25:39;;;;;;;2.22;0.98;;;22.60;49.50;;;;;;6241553;23;20000;-68
2022/08/31 10:28:30;;;;;;;1.13;1.02;;;22.70;49.00;;;;;;6243842;23;20467;-68
2022/08/31 10:31:11;;;;;;;2.00;1.00;;;22.60;49.20;;;;;;6241125;23;20345;-68
2022/08/31 10:36:31;;;;;;;2.80;1.10;;;22.80;49.10;;;;;;6242528;23;20058;-69
2022/08/31 10:38:58;;;;;;;1.20;1.10;;;22.90;48.80;;;;;;6242676;23;20010;-68
2022/08/31 10:41:31;;;;;;;1.55;1.17;;;23.00;48.50;;;;;;6242612;23;20008;-68
2022/08/31 10:44:17;;;;;;;1.60;1.10;;;23.00;48.60;;;;;;6241320;23;20062;-68
2022/08/31 10:46:43;;;;;;;2.38;1.08;;;23.10;48.60;;;;;;6242801;23;20000;-69
2022/08/31 10:49:10;;;;;;;1.88;1.20;;;23.10;48.20;;;;;;6242875;23;20036;-68
2022/08/31 10:52:10;;;;;;;1.17;0.90;;;23.10;48.40;;;;;;6243470;23;20008;-68
2022/08/31 10:54:54;;;;;;;1.20;0.90;;;23.20;48.40;;;;;;6198774;23;20008;-68
2022/08/31 10:57:49;;;;;;;3.00;0.95;;;23.20;48.10;;;;;;6243261;23;20314;-68
2022/08/31 11:03:18;;;;;;;2.47;1.17;;;23.20;48.20;;;;;;6241840;23;20054;-68
2022/08/31 11:05:54;;;;;;;2.42;1.35;;;23.10;48.20;;;;;;6240143;23;20007;-68
2022/08/31 11:08:56;;;;;;;1.90;1.10;;;23.20;48.30;;;;;;6242537;23;20106;-68
2022/08/31 11:11:56;;;;;;;1.55;1.10;;;23.30;48.20;;;;;;6242119;23;20011;-68
2022/08/31 11:14:43;;;;;;;2.90;1.00;;;23.40;47.90;;;;;;6240472;23;20002;-68
2022/08/31 11:17:28;;;;;;;2.13;1.05;;;23.60;47.50;;;;;;6239940;23;20083;-68
2022/08/31 11:20:00;;;;;;;1.83;1.02;;;23.70;47.40;;;;;;6239956;23;20011;-68
2022/08/31 11:22:43;;;;;;;1.77;1.00;;;23.90;47.30;;;;;;6239930;23;20010;-68
2022/08/31 11:25:25;;;;;;;1.60;1.20;;;23.80;47.00;;;;;;6240460;23;19999;-68
2022/08/31 11:28:10;;;;;;;1.90;1.20;;;23.80;47.00;;;;;;6239189;23;20043;-68
2022/08/31 11:30:44;;;;;;;1.92;1.10;;;23.80;47.00;;;;;;6242222;23;20004;-68
2022/08/31 11:33:18;;;;;;;1.77;1.30;;;23.80;46.90;;;;;;6241998;23;20011;-68
2022/08/31 11:36:01;;;;;;;1.05;0.88;;;23.70;46.70;;;;;;6238843;23;20488;-68
2022/08/31 11:38:53;;;;;;;2.50;1.40;;;23.60;47.20;;;;;;6241504;23;20000;-68
2022/08/31 11:41:42;;;;;;;;;;;23.50;47.30;;;;;;6242264;23;20384;-68
2022/08/31 11:44:09;;;;;;;1.67;1.10;;;23.50;47.40;;;;;;6240430;22;19904;-68
2022/08/31 11:46:41;;;;;;;4.43;1.25;;;23.50;47.70;;;;;;6241464;22;20421;-68
2022/08/31 11:49:09;;;;;;;2.35;1.13;;;23.50;47.10;;;;;;6240261;23;20010;-68
2022/08/31 11:51:39;;;;;;;3.15;1.40;;;23.40;47.20;;;;;;6240837;23;20008;-68
2022/08/31 11:54:21;;;;;;;1.48;1.30;;;23.30;47.40;;;;;;6240383;23;20054;-68
2022/08/31 11:56:47;;;;;;;2.38;0.90;;;23.20;47.60;;;;;;6239729;23;20001;-68
2022/08/31 11:59:21;;;;;;;2.97;1.10;;;23.30;47.90;;;;;;6240807;23;20050;-68
2022/08/31 12:01:47;;;;;;;2.08;1.10;;;23.70;47.50;;;;;;6241254;23;20007;-67
2022/08/31 12:04:45;;;;;;;1.38;1.00;;;23.90;47.00;;;;;;6241433;23;20008;-68
2022/08/31 12:07:29;;;;;;;1.00;0.90;;;24.20;46.70;;;;;;6211576;22;20023;-68
2022/08/31 12:10:52;;;;;;;1.10;0.90;;;24.40;46.20;;;;;;6242007;23;20085;-68
2022/08/31 12:13:40;;;;;;;1.08;0.70;;;24.40;45.80;;;;;;6149218;23;20014;-67
2022/08/31 12:16:41;;;;;;;1.10;0.88;;;24.60;45.50;;;;;;6237199;23;20494;-68
2022/08/31 12:25:40;;;;;;;1.15;0.80;;;25.10;44.60;;;;;;6241786;23;20069;-68
2022/08/31 12:28:35;;;;;;;1.75;1.15;;;25.10;44.40;;;;;;6242044;23;20008;-68
2022/08/31 12:31:06;;;;;;;2.45;0.95;;;24.80;44.20;;;;;;6242096;23;20000;-68
2022/08/31 12:33:33;;;;;;;2.72;0.98;;;24.60;44.50;;;;;;6242664;23;20042;-68
2022/08/31 12:36:17;;;;;;;2.05;1.10;;;24.70;44.60;;;;;;6241228;23;20421;-68
2022/08/31 12:38:43;;;;;;;3.78;1.13;;;24.70;44.20;;;;;;6241628;23;20031;-68
2022/08/31 12:41:11;;;;;;;4.25;1.20;;;24.60;44.10;;;;;;6242493;23;19996;-68
2022/08/31 12:43:47;;;;;;;2.00;1.02;;;24.50;44.20;;;;;;6241461;23;20346;-69
2022/08/31 12:46:28;;;;;;;1.38;1.20;;;24.50;44.50;;;;;;6241411;23;20011;-68
2022/08/31 12:49:20;;;;;;;2.08;1.20;;;24.70;44.20;;;;;;6241235;23;20008;-68
2022/08/31 12:52:03;;;;;;;1.60;1.00;;;24.80;43.80;;;;;;6242318;23;20004;-68
2022/08/31 12:54:44;;;;;;;1.33;1.00;;;24.70;44.00;;;;;;6239798;23;20752;-68
2022/08/31 12:57:29;;;;;;;1.20;1.10;;;24.80;43.80;;;;;;6243260;23;20027;-68
2022/08/31 13:00:08;;;;;;;2.58;1.05;;;24.70;43.80;;;;;;6240575;23;20004;-68
2022/08/31 13:02:40;;;;;;;3.90;0.93;;;24.80;44.00;;;;;;6243284;23;20007;-68
2022/08/31 13:05:21;;;;;;;3.17;1.20;;;24.90;43.90;;;;;;6239927;23;20008;-68
2022/08/31 13:07:48;;;;;;;1.10;0.87;;;25.00;43.40;;;;;;6243568;23;20436;-68
2022/08/31 13:10:28;;;;;;;1.48;1.23;;;25.10;43.50;;;;;;6240489;23;20700;-69
2022/08/31 13:12:57;;;;;;;1.48;0.88;;;25.20;43.10;;;;;;6242013;23;20023;-68
2022/08/31 13:15:43;;;;;;;0.80;0.80;;;25.20;42.80;;;;;;6240610;23;20020;-69
2022/08/31 13:18:12;;;;;;;1.40;1.10;;;25.40;42.90;;;;;;6241340;22;20349;-68
2022/08/31 13:20:41;;;;;;;2.40;0.93;;;25.50;42.70;;;;;;6240201;23;20380;-68
2022/08/31 13:23:10;;;;;;;1.52;0.98;;;25.70;42.50;;;;;;6242738;23;20008;-68
2022/08/31 13:25:37;;;;;;;1.27;0.80;;;25.80;42.00;;;;;;6240547;23;20000;-68
2022/08/31 13:28:11;;;;;;;3.22;1.30;;;25.90;42.30;;;;;;6242046;23;20008;-68
2022/08/31 13:30:38;;;;;;;1.30;1.05;;;26.00;41.20;;;;;;6242129;23;20004;-68